createdAt,value
2022-08-30T00:02:57.599Z,73.77
2022-08-30T00:08:01.137Z,73.60
2022-08-30T00:13:06.627Z,74.55
2022-08-30T00:18:10.194Z,74.67
2022-08-30T00:23:14.144Z,75.07
2022-08-30T00:28:18.505Z,75.04
2022-08-30T00:33:22.077Z,76.63
2022-08-30T00:38:25.106Z,75.61
2022-08-30T00:43:34.095Z,75.41
2022-08-30T00:48:43.964Z,75.30
2022-08-30T00:53:54.911Z,75.01
2022-08-30T00:59:01.753Z,74.89
2022-08-30T01:04:06.918Z,74.62
2022-08-30T01:09:10.358Z,74.14
2022-08-30T01:14:15.534Z,74.78
2022-08-30T01:19:35.454Z,76.20
2022-08-30T01:24:39.894Z,74.91
2022-08-30T01:29:45.198Z,75.23
2022-08-30T01:34:49.034Z,75.00
2022-08-30T01:39:53.359Z,74.63
2022-08-30T01:44:56.358Z,75.27
2022-08-30T01:49:59.394Z,75.31
2022-08-30T01:55:04.049Z,75.24
2022-08-30T02:00:09.780Z,75.09
2022-08-30T02:05:16.103Z,74.92
2022-08-30T02:10:20.835Z,75.33
2022-08-30T02:15:23.795Z,75.15
2022-08-30T02:20:26.902Z,75.47
2022-08-30T02:25:31.507Z,75.58
2022-08-30T02:30:34.994Z,75.72
2022-08-30T02:35:38.046Z,75.75
2022-08-30T02:40:42.586Z,76.21
2022-08-30T02:45:45.916Z,75.95
2022-08-30T02:50:50.648Z,75.92
2022-08-30T02:55:55.533Z,75.78
2022-08-30T03:01:01.804Z,75.33
2022-08-30T03:06:05.041Z,76.07
2022-08-30T03:11:10.836Z,76.12
2022-08-30T03:16:13.912Z,76.95
2022-08-30T03:21:18.045Z,76.58
2022-08-30T03:26:22.445Z,77.14
2022-08-30T03:31:25.446Z,76.87
2022-08-30T03:36:28.460Z,76.44
2022-08-30T03:41:33.187Z,76.42
2022-08-30T03:46:37.635Z,77.16
2022-08-30T03:51:40.665Z,78.24
2022-08-30T03:56:45.368Z,77.66
2022-08-30T04:01:48.421Z,77.09
2022-08-30T04:06:51.452Z,77.68
2022-08-30T04:11:55.799Z,77.69
2022-08-30T04:16:59.153Z,77.27
2022-08-30T04:22:02.129Z,78.05
2022-08-30T04:27:06.884Z,77.59
2022-08-30T04:32:09.891Z,76.97
2022-08-30T04:37:13.415Z,77.58
2022-08-30T04:42:18.657Z,77.16
2022-08-30T04:47:21.672Z,77.30
2022-08-30T04:52:25.151Z,77.18
2022-08-30T04:57:30.133Z,77.75
2022-08-30T05:02:33.174Z,77.58
2022-08-30T05:07:36.634Z,76.28
2022-08-30T05:12:42.424Z,76.32
2022-08-30T05:17:45.769Z,75.51
2022-08-30T05:22:53.511Z,75.60
2022-08-30T05:27:58.619Z,75.28
2022-08-30T05:33:02.367Z,74.29
2022-08-30T05:38:05.361Z,74.96
2022-08-30T05:43:11.734Z,76.68
2022-08-30T05:48:14.745Z,74.79
2022-08-30T05:53:17.840Z,73.55
2022-08-30T05:58:22.179Z,73.55
2022-08-30T06:03:25.802Z,72.74
2022-08-30T06:08:30.129Z,73.46
2022-08-30T06:13:34.559Z,69.54
2022-08-30T06:18:37.523Z,69.10
2022-08-30T06:23:40.540Z,66.41
2022-08-30T06:28:45.448Z,67.20
2022-08-30T06:33:49.236Z,67.43
2022-08-30T06:38:53.188Z,65.74
2022-08-30T06:43:59.495Z,63.59
2022-08-30T06:49:03.740Z,63.36
2022-08-30T06:54:12.034Z,61.19
2022-08-30T06:59:16.637Z,60.74
2022-08-30T07:04:19.642Z,61.51
2022-08-30T07:09:22.855Z,60.62
2022-08-30T07:14:28.091Z,59.90
2022-08-30T07:19:31.084Z,60.84
2022-08-30T07:24:34.062Z,60.33
2022-08-30T07:29:38.483Z,60.17
2022-08-30T07:34:41.777Z,60.12
2022-08-30T07:39:48.149Z,60.22
2022-08-30T07:44:56.517Z,58.62
2022-08-30T07:50:00.756Z,59.29
2022-08-30T07:55:04.525Z,58.75
2022-08-30T08:00:10.666Z,55.67
2022-08-30T08:05:18.182Z,58.35
2022-08-30T08:10:22.689Z,55.66
2022-08-30T08:15:27.812Z,56.44
2022-08-30T08:20:31.120Z,56.68
2022-08-30T08:25:35.442Z,54.68
2022-08-30T08:30:40.938Z,53.19
2022-08-30T08:35:45.693Z,50.82
2022-08-30T08:41:00.817Z,51.11
2022-08-30T08:46:12.191Z,52.77
2022-08-30T08:51:35.503Z,51.25
2022-08-30T08:56:39.517Z,49.03
2022-08-30T09:01:43.928Z,47.80
2022-08-30T09:06:53.850Z,49.06
2022-08-30T09:11:56.995Z,49.67
2022-08-30T09:17:03.290Z,47.42
2022-08-30T09:22:18.295Z,47.61
2022-08-30T09:27:25.574Z,48.19
2022-08-30T09:32:35.340Z,47.88
2022-08-30T09:37:42.265Z,45.89
2022-08-30T09:43:00.833Z,49.30
2022-08-30T09:48:27.922Z,48.71
2022-08-30T09:53:35.639Z,45.94
2022-08-30T09:58:56.632Z,46.11
2022-08-30T10:04:09.442Z,44.47
2022-08-30T10:09:25.351Z,44.85
2022-08-30T10:14:46.367Z,43.22
2022-08-30T10:20:04.442Z,44.07
2022-08-30T10:25:16.092Z,45.37
2022-08-30T10:30:19.874Z,43.27
2022-08-30T10:35:28.088Z,47.02
2022-08-30T10:40:52.266Z,47.07
2022-08-30T10:46:00.985Z,46.56
2022-08-30T10:51:11.538Z,48.62
2022-08-30T10:56:20.568Z,47.57
2022-08-30T11:01:37.808Z,46.02
2022-08-30T11:06:59.234Z,47.41
2022-08-30T11:12:32.353Z,46.17
2022-08-30T11:17:45.165Z,43.09
2022-08-30T11:23:22.877Z,43.21
2022-08-30T11:29:06.566Z,43.24
2022-08-30T11:34:11.193Z,43.18
2022-08-30T11:39:56.824Z,40.87
2022-08-30T11:45:37.026Z,43.27
2022-08-30T11:50:50.306Z,44.51
2022-08-30T11:56:08.781Z,41.62
2022-08-30T12:01:42.282Z,41.44
2022-08-30T12:06:53.001Z,43.04
2022-08-30T12:11:59.866Z,43.16
2022-08-30T12:17:22.153Z,43.84
2022-08-30T12:22:25.326Z,45.47
2022-08-30T12:27:33.105Z,44.31
2022-08-30T12:32:44.928Z,41.89
2022-08-30T12:37:58.293Z,42.55
2022-08-30T12:43:17.343Z,42.13
2022-08-30T12:48:21.873Z,39.58
2022-08-30T12:53:32.894Z,44.03
2022-08-30T12:58:44.297Z,45.76
2022-08-30T13:04:03.437Z,48.62
2022-08-30T13:09:06.608Z,49.57
2022-08-30T13:14:32.939Z,52.14
2022-08-30T13:19:38.240Z,51.15
2022-08-30T13:24:41.221Z,47.85
2022-08-30T13:29:46.114Z,48.79
2022-08-30T13:34:49.263Z,46.91
2022-08-30T13:39:52.239Z,49.75
2022-08-30T13:44:57.525Z,48.64
2022-08-30T13:50:01.401Z,49.72
2022-08-30T13:55:04.876Z,49.43
2022-08-30T14:00:14.756Z,49.28
2022-08-30T14:05:46.724Z,50.59
2022-08-30T14:10:47.370Z,50.37
2022-08-30T14:16:26.507Z,48.84
2022-08-30T14:21:16.866Z,49.30
2022-08-30T14:26:32.567Z,48.03
2022-08-30T14:31:39.106Z,49.81
2022-08-30T14:36:44.606Z,48.93
2022-08-30T14:41:51.379Z,48.05
2022-08-30T14:46:57.316Z,47.72
2022-08-30T14:52:00.625Z,46.61
2022-08-30T14:57:03.697Z,45.78
2022-08-30T15:02:08.608Z,45.17
2022-08-30T15:07:13.871Z,46.21
2022-08-30T15:12:17.012Z,46.82
2022-08-30T15:17:21.484Z,47.13
2022-08-30T15:22:24.698Z,47.60
2022-08-30T15:27:27.715Z,47.12
2022-08-30T15:32:33.180Z,45.62
2022-08-30T15:37:37.647Z,47.19
2022-08-30T15:42:40.649Z,46.15
2022-08-30T15:47:46.740Z,46.06
2022-08-30T15:52:51.886Z,46.48
2022-08-30T15:57:54.966Z,47.23
2022-08-30T16:02:59.259Z,47.03
2022-08-30T16:08:02.280Z,47.70
2022-08-30T16:13:05.313Z,49.75
2022-08-30T16:18:13.445Z,50.73
2022-08-30T16:23:16.718Z,51.18
2022-08-30T16:28:19.813Z,51.67
2022-08-30T16:33:26.137Z,51.74
2022-08-30T16:38:29.679Z,52.31
2022-08-30T16:43:33.055Z,53.02
2022-08-30T16:48:39.404Z,51.70
2022-08-30T16:53:44.944Z,51.60
2022-08-30T16:58:49.403Z,51.40
2022-08-30T17:03:54.243Z,52.48
2022-08-30T17:08:57.504Z,52.49
2022-08-30T17:14:02.281Z,52.80
2022-08-30T17:19:08.792Z,53.04
2022-08-30T17:24:11.957Z,52.11
2022-08-30T17:29:15.882Z,53.42
2022-08-30T17:34:21.835Z,52.88
2022-08-30T17:39:25.367Z,53.14
2022-08-30T17:44:29.746Z,53.56
2022-08-30T17:49:34.429Z,53.97
2022-08-30T17:54:37.688Z,55.14
2022-08-30T17:59:41.289Z,54.87
2022-08-30T18:04:46.674Z,55.87
2022-08-30T18:09:49.853Z,57.29
2022-08-30T18:14:54.154Z,56.17
2022-08-30T18:19:58.785Z,57.59
2022-08-30T18:25:06.301Z,57.08
2022-08-30T18:30:11.440Z,57.09
2022-08-30T18:35:16.288Z,57.84
2022-08-30T18:40:19.795Z,58.59
2022-08-30T18:45:23.919Z,59.23
2022-08-30T18:50:28.650Z,59.87
2022-08-30T18:55:31.691Z,59.64
2022-08-30T19:00:36.032Z,60.17
2022-08-30T19:05:41.521Z,60.80
2022-08-30T19:10:45.043Z,61.04
2022-08-30T19:15:48.040Z,60.45
2022-08-30T19:20:52.635Z,59.89
2022-08-30T19:25:56.224Z,60.64
2022-08-30T19:31:01.266Z,61.33
2022-08-30T19:36:08.088Z,61.62
2022-08-30T19:41:12.522Z,62.08
2022-08-30T19:46:16.191Z,62.28
2022-08-30T19:51:21.260Z,62.64
2022-08-30T19:56:25.079Z,63.11
2022-08-30T20:01:33.265Z,63.78
2022-08-30T20:06:38.499Z,63.90
2022-08-30T20:11:42.329Z,64.74
2022-08-30T20:16:47.468Z,64.63
2022-08-30T20:21:51.896Z,65.10
2022-08-30T20:26:57.497Z,64.88
2022-08-30T20:32:01.699Z,66.15
2022-08-30T20:37:08.184Z,66.07
2022-08-30T20:42:11.203Z,66.07
2022-08-30T20:47:14.315Z,66.37
2022-08-30T20:52:19.197Z,66.51
2022-08-30T20:57:24.461Z,66.97
2022-08-30T21:02:28.130Z,68.57
2022-08-30T21:07:32.711Z,67.68
2022-08-30T21:12:36.931Z,67.38
2022-08-30T21:17:40.185Z,67.74
2022-08-30T21:22:46.263Z,67.98
2022-08-30T21:27:49.231Z,68.24
2022-08-30T21:32:52.540Z,69.20
2022-08-30T21:37:56.902Z,69.60
2022-08-30T21:43:05.045Z,69.47
2022-08-30T21:48:09.608Z,70.11
2022-08-30T21:53:15.417Z,71.01
2022-08-30T21:58:20.126Z,70.14
2022-08-30T22:03:23.119Z,70.18
2022-08-30T22:08:27.459Z,70.40
2022-08-30T22:13:30.419Z,70.54
2022-08-30T22:18:33.648Z,70.59
2022-08-30T22:23:38.580Z,70.72
2022-08-30T22:28:41.621Z,70.26
2022-08-30T22:33:45.746Z,71.02
2022-08-30T22:38:52.610Z,71.12
2022-08-30T22:43:56.194Z,70.90
2022-08-30T22:49:00.103Z,71.53
2022-08-30T22:54:05.626Z,72.25
2022-08-30T22:59:08.834Z,72.22
2022-08-30T23:04:12.703Z,72.28
2022-08-30T23:09:17.024Z,72.05
2022-08-30T23:14:20.000Z,72.63
2022-08-30T23:19:23.709Z,72.93
2022-08-30T23:24:49.022Z,72.34
2022-08-30T23:30:09.517Z,72.63
2022-08-30T23:35:31.923Z,72.75
2022-08-30T23:40:53.813Z,73.25
2022-08-30T23:46:17.044Z,73.84
2022-08-30T23:51:39.852Z,73.97
2022-08-30T23:57:01.768Z,73.67
